CST,Max TemperatureF,Mean TemperatureF,Min TemperatureF,Max Dew PointF,MeanDew PointF,Min DewpointF,Max Humidity, Mean Humidity, Min Humidity, Max Sea Level PressureIn, Mean Sea Level PressureIn, Min Sea Level PressureIn, Max VisibilityMiles, Mean VisibilityMiles, Min VisibilityMiles, Max Wind SpeedMPH, Mean Wind SpeedMPH, Max Gust SpeedMPH,PrecipitationIn, CloudCover, Events, WindDirDegrees
2012-12-1,63,50,37,49,44,34,94,75,59,30.17,30.10,30.01,10,8,4,22,10,30,0.00,3,,164
2012-12-2,66,60,53,58,54,48,100,85,65,30.09,30.03,29.97,10,8,1,24,15,31,0.11,6,Rain,202
2012-12-3,70,64,58,61,59,54,98,83,66,30.08,30.01,29.94,10,7,2,28,14,36,0.00,5,,187
2012-12-4,61,49,37,55,46,35,95,83,67,30.27,30.11,29.97,10,10,7,17,11,24,0.10,4,Rain,299
2012-12-5,46,39,32,35,33,28,94,80,60,30.41,30.32,30.22,10,10,7,8,4,,0.00,0,,41
2012-12-6,48,39,30,42,35,28,93,82,66,30.21,30.07,29.97,10,10,7,8,4,,0.00,3,,135
2012-12-7,49,46,44,48,46,42,99,96,88,29.97,29.89,29.82,10,4,0,10,2,,0.19,8,Fog-Rain,74
2012-12-8,46,43,40,46,42,38,100,94,84,30.04,29.96,29.85,10,7,0,9,4,,0.11,8,Fog-Rain,351
2012-12-9,52,46,40,52,45,38,99,96,89,30.02,29.84,29.74,10,6,1,20,10,24,0.57,8,Rain,58
2012-12-10,40,34,29,38,28,26,93,88,85,30.01,29.88,29.79,10,10,7,20,12,25,0.09,8,,288
2012-12-11,35,29,23,27,25,22,94,83,68,30.24,30.12,30.01,10,10,10,16,8,21,0.00,1,,219
2012-12-12,44,34,23,32,27,21,90,79,57,30.37,30.32,30.24,10,10,7,10,5,,0.00,0,,165
2012-12-13,46,36,26,33,28,23,90,75,56,30.37,30.30,30.20,10,10,7,15,7,18,0.00,0,,169
2012-12-14,50,40,30,37,32,26,91,73,54,30.26,30.18,30.07,10,10,7,9,4,,0.00,0,,159
2012-12-15,54,47,40,52,44,32,93,86,67,30.07,29.82,29.67,10,10,7,28,12,40,0.11,7,Rain,160
2012-12-16,53,47,41,52,45,39,97,90,81,29.76,29.71,29.67,10,8,2,16,10,21,0.00,8,,257
2012-12-17,41,38,35,39,37,34,97,93,89,29.76,29.71,29.63,10,6,2,10,4,,0.04,8,Rain-Thunderstorm,331
2012-12-18,45,40,34,39,35,32,97,86,75,29.89,29.77,29.65,10,8,4,24,10,33,0.00,4,,220
2012-12-19,45,40,35,41,35,32,89,84,79,30.07,29.95,29.70,10,8,5,16,7,22,0.02,8,Rain-Thunderstorm,76
2012-12-20,54,40,27,51,38,24,97,89,70,29.68,29.41,29.19,10,7,0,44,21,55,1.03,8,Rain-Snow-Thunderstorm,200
2012-12-21,28,23,18,24,19,15,91,83,73,30.24,30.00,29.67,10,9,1,37,26,47,0.00,3,Snow,289
2012-12-22,33,24,14,27,19,12,90,80,68,30.28,30.17,29.97,10,10,10,10,6,,0.00,0,,200
2012-12-23,39,32,25,31,27,23,90,81,71,29.98,29.94,29.90,10,10,10,10,5,,0.00,0,,60
2012-12-24,35,32,29,32,29,27,94,89,79,30.08,29.91,29.80,10,8,4,17,7,22,0.00,6,,319
2012-12-25,34,32,29,28,27,25,91,80,71,30.24,30.15,30.01,10,9,5,23,9,31,0.00,7,,33
2012-12-26,32,30,29,28,27,26,95,86,78,30.07,29.92,29.81,10,7,0,21,15,32,0.03,8,Snow,3
2012-12-27,31,30,28,27,25,24,89,84,74,30.20,30.15,30.07,10,10,10,13,6,17,0.00,8,,296
2012-12-28,32,30,29,30,28,26,96,90,85,30.13,30.00,29.85,10,7,2,10,2,,0.06,8,Snow,126
2012-12-29,31,24,13,31,24,11,97,88,76,30.30,30.04,29.84,,,,20,8,25,0.01,8,,297
2012-12-30,30,17,4,25,16,2,93,83,70,30.43,30.35,30.23,10,10,7,17,7,23,0.00,0,,194
2012-12-31,34,32,28,32,28,24,100,87,74,30.23,30.13,30.07,10,7,1,18,13,21,0.00,6,Snow,222